createdAt,value
2019-02-19T00:01:01.589Z,-1.38
2019-02-19T00:04:06.855Z,-1.40
2019-02-19T00:07:12.076Z,-1.39
2019-02-19T00:10:17.301Z,-1.50
2019-02-19T00:13:22.460Z,-1.52
2019-02-19T00:16:27.663Z,-1.47
2019-02-19T00:19:32.840Z,-1.42
2019-02-19T00:22:38.027Z,-1.41
2019-02-19T00:25:43.106Z,-1.47
2019-02-19T00:28:48.231Z,-1.53
2019-02-19T00:31:53.425Z,-1.46
2019-02-19T00:34:58.628Z,-1.48
2019-02-19T00:38:03.814Z,-1.39
2019-02-19T00:41:08.961Z,-1.53
2019-02-19T00:44:14.111Z,-1.58
2019-02-19T00:47:19.287Z,-1.60
2019-02-19T00:50:24.603Z,-1.69
2019-02-19T00:53:29.773Z,-1.65
2019-02-19T00:56:34.960Z,-1.74
2019-02-19T00:59:40.124Z,-1.78
2019-02-19T01:02:45.350Z,-1.69
2019-02-19T01:05:50.538Z,-1.68
2019-02-19T01:08:55.659Z,-1.71
2019-02-19T01:12:00.773Z,-1.84
2019-02-19T01:15:07.656Z,-1.85
2019-02-19T01:18:12.858Z,-1.81
2019-02-19T01:21:18.002Z,-1.74
2019-02-19T01:24:23.166Z,-1.65
2019-02-19T01:27:28.361Z,-1.58
2019-02-19T01:30:33.545Z,-1.54
2019-02-19T01:33:38.654Z,-1.56
2019-02-19T01:36:43.819Z,-1.42
2019-02-19T01:39:49.133Z,-1.32
2019-02-19T01:42:54.401Z,-1.11
2019-02-19T01:45:59.538Z,-0.90
2019-02-19T01:49:04.644Z,-0.90
2019-02-19T01:52:10.006Z,-0.88
2019-02-19T01:55:15.164Z,-0.75
2019-02-19T01:58:20.317Z,-0.76
2019-02-19T02:01:25.433Z,-0.74
2019-02-19T02:04:30.555Z,-0.72
2019-02-19T02:07:35.665Z,-0.71
2019-02-19T02:10:40.877Z,-0.62
2019-02-19T02:13:46.009Z,-0.58
2019-02-19T02:16:51.215Z,-0.51
2019-02-19T02:19:56.368Z,-0.40
2019-02-19T02:23:01.570Z,-0.50
2019-02-19T02:26:06.757Z,-0.50
2019-02-19T02:29:11.956Z,-0.52
2019-02-19T02:32:17.161Z,-0.46
2019-02-19T02:35:22.355Z,-0.49
2019-02-19T02:38:27.516Z,-0.57
2019-02-19T02:41:32.690Z,-0.67
2019-02-19T02:44:37.854Z,-0.76
2019-02-19T02:47:42.990Z,-0.83
2019-02-19T02:50:48.173Z,-0.69
2019-02-19T02:53:53.452Z,-0.74
2019-02-19T02:56:58.594Z,-0.83
2019-02-19T03:00:03.800Z,-0.92
2019-02-19T03:03:09.624Z,-0.95
2019-02-19T03:06:23.634Z,-0.90
2019-02-19T03:09:28.777Z,-0.94
2019-02-19T03:12:33.985Z,-0.97
2019-02-19T03:15:39.162Z,-0.93
2019-02-19T03:18:44.371Z,-0.92
2019-02-19T03:21:49.504Z,-0.84
2019-02-19T03:24:54.697Z,-0.94
2019-02-19T03:27:59.851Z,-0.95
2019-02-19T03:31:05.093Z,-0.79
2019-02-19T03:34:10.255Z,-0.77
2019-02-19T03:37:15.394Z,-1.02
2019-02-19T03:40:20.503Z,-1.01
2019-02-19T03:43:25.781Z,-1.03
2019-02-19T03:46:30.944Z,-1.09
2019-02-19T03:49:36.106Z,-1.04
2019-02-19T03:52:41.270Z,-1.27
2019-02-19T03:55:46.421Z,-1.12
2019-02-19T03:58:51.620Z,-1.29
2019-02-19T04:01:56.825Z,-1.23
2019-02-19T04:05:01.981Z,-1.27
2019-02-19T04:08:07.281Z,-1.18
2019-02-19T04:11:12.382Z,-1.12
2019-02-19T04:14:17.524Z,-1.20
2019-02-19T04:17:22.725Z,-1.19
2019-02-19T04:20:28.011Z,-1.36
2019-02-19T04:23:33.158Z,-1.40
2019-02-19T04:26:38.559Z,-1.37
2019-02-19T04:29:43.762Z,-1.24
2019-02-19T04:32:48.980Z,-1.27
2019-02-19T04:35:54.099Z,-1.41
2019-02-19T04:38:59.462Z,-1.36
2019-02-19T04:42:04.569Z,-1.26
2019-02-19T04:45:09.887Z,-1.21
2019-02-19T04:48:15.074Z,-1.24
2019-02-19T04:51:20.253Z,-1.27
2019-02-19T04:54:25.456Z,-1.39
2019-02-19T04:57:30.635Z,-1.38
2019-02-19T05:00:35.797Z,-1.08
2019-02-19T05:03:40.980Z,-0.95
2019-02-19T05:06:46.166Z,-1.21
2019-02-19T05:09:51.309Z,-1.27
2019-02-19T05:12:56.482Z,-1.31
2019-02-19T05:16:01.634Z,-1.29
2019-02-19T05:19:07.872Z,-1.33
2019-02-19T05:22:13.056Z,-1.28
2019-02-19T05:25:18.202Z,-1.42
2019-02-19T05:28:23.384Z,-1.37
2019-02-19T05:31:28.525Z,-1.33
2019-02-19T05:34:33.704Z,-1.46
2019-02-19T05:37:38.869Z,-1.42
2019-02-19T05:40:44.019Z,-1.39
2019-02-19T05:43:49.148Z,-1.40
2019-02-19T05:46:54.271Z,-1.33
2019-02-19T05:49:59.453Z,-1.31
2019-02-19T05:53:04.738Z,-1.33
2019-02-19T05:56:09.881Z,-1.37
2019-02-19T05:59:15.078Z,-1.40
2019-02-19T06:02:20.336Z,-1.43
2019-02-19T06:05:25.469Z,-1.53
2019-02-19T06:08:30.644Z,-1.42
2019-02-19T06:11:35.816Z,-1.41
2019-02-19T06:14:41.205Z,-1.39
2019-02-19T06:17:46.419Z,-1.40
2019-02-19T06:20:51.619Z,-1.39
2019-02-19T06:23:56.720Z,-1.34
2019-02-19T06:27:01.921Z,-1.40
2019-02-19T06:30:10.915Z,-1.49
2019-02-19T06:33:16.000Z,-1.39
2019-02-19T06:36:21.124Z,-1.33
2019-02-19T06:39:26.290Z,-1.31
2019-02-19T06:42:31.445Z,-1.36
2019-02-19T06:45:36.629Z,-1.32
2019-02-19T06:48:41.791Z,-1.30
2019-02-19T06:51:46.987Z,-1.20
2019-02-19T06:54:52.161Z,-1.13
2019-02-19T06:57:57.381Z,-1.02
2019-02-19T07:01:02.501Z,-1.16
2019-02-19T07:04:14.422Z,-1.24
2019-02-19T07:07:20.900Z,-1.22
2019-02-19T07:10:26.306Z,-1.15
2019-02-19T07:13:31.656Z,-0.99
2019-02-19T07:16:36.781Z,-1.04
2019-02-19T07:19:41.930Z,-0.95
2019-02-19T07:22:47.081Z,-0.95
2019-02-19T07:25:52.266Z,-0.86
2019-02-19T07:28:57.443Z,-0.84
2019-02-19T07:32:02.578Z,-0.78
2019-02-19T07:35:07.814Z,-0.70
2019-02-19T07:38:12.912Z,-0.50
2019-02-19T07:41:18.091Z,-0.21
2019-02-19T07:44:23.235Z,-0.17
2019-02-19T07:47:28.412Z,-0.05
2019-02-19T07:50:33.691Z,-0.14
2019-02-19T07:53:38.826Z,-0.24
2019-02-19T07:56:44.185Z,-0.24
2019-02-19T07:59:49.353Z,-0.28
2019-02-19T08:02:54.496Z,-0.17
2019-02-19T08:05:59.635Z,-0.18
2019-02-19T08:09:06.652Z,-0.15
2019-02-19T08:12:12.066Z,-0.10
2019-02-19T08:15:17.186Z,0.05
2019-02-19T08:18:22.416Z,0.06
2019-02-19T08:21:27.602Z,0.24
2019-02-19T08:24:32.776Z,0.53
2019-02-19T08:27:37.905Z,0.87
2019-02-19T08:30:43.031Z,0.93
2019-02-19T08:33:48.212Z,0.95
2019-02-19T08:36:53.356Z,0.79
2019-02-19T08:39:58.534Z,0.84
2019-02-19T08:43:04.005Z,0.89
2019-02-19T08:46:09.142Z,0.95
2019-02-19T08:49:14.400Z,0.87
2019-02-19T08:52:19.585Z,1.14
2019-02-19T08:55:24.800Z,1.27
2019-02-19T08:58:30.086Z,1.03
2019-02-19T09:01:35.251Z,1.10
2019-02-19T09:04:40.390Z,1.24
2019-02-19T09:07:45.577Z,1.47
2019-02-19T09:10:50.860Z,1.38
2019-02-19T09:13:56.033Z,1.47
2019-02-19T09:17:01.179Z,1.67
2019-02-19T09:20:07.137Z,1.81
2019-02-19T09:23:12.342Z,1.90
2019-02-19T09:26:17.542Z,1.78
2019-02-19T09:29:22.710Z,2.02
2019-02-19T09:32:27.859Z,1.95
2019-02-19T09:35:32.982Z,2.20
2019-02-19T09:38:38.237Z,2.23
2019-02-19T09:41:43.384Z,2.60
2019-02-19T09:44:48.542Z,2.32
2019-02-19T09:48:01.044Z,2.77
2019-02-19T09:51:00.655Z,2.80
2019-02-19T09:54:05.763Z,3.01
2019-02-19T09:57:10.946Z,3.03
2019-02-19T10:00:16.220Z,3.61
2019-02-19T10:03:21.468Z,3.30
2019-02-19T10:06:30.272Z,2.98
2019-02-19T10:09:37.036Z,3.04
2019-02-19T10:12:42.232Z,3.21
2019-02-19T10:15:47.400Z,3.22
2019-02-19T10:18:52.481Z,3.10
2019-02-19T10:21:57.644Z,2.99
2019-02-19T10:25:02.800Z,3.19
2019-02-19T10:28:07.993Z,3.35
2019-02-19T10:31:13.136Z,3.09
2019-02-19T10:34:18.259Z,3.23
2019-02-19T10:37:23.472Z,3.08
2019-02-19T10:40:28.692Z,3.33
2019-02-19T10:43:33.843Z,3.26
2019-02-19T10:46:39.031Z,3.39
2019-02-19T10:49:44.314Z,3.43
2019-02-19T10:52:49.467Z,3.38
2019-02-19T10:55:55.688Z,3.54
2019-02-19T10:59:00.845Z,3.39
2019-02-19T11:02:05.985Z,3.41
2019-02-19T11:05:11.169Z,3.52
2019-02-19T11:08:16.293Z,3.55
2019-02-19T11:11:21.460Z,3.86
2019-02-19T11:14:26.596Z,3.97
2019-02-19T11:17:31.762Z,4.09
2019-02-19T11:20:36.920Z,4.17
2019-02-19T11:23:42.098Z,4.28
2019-02-19T11:26:47.434Z,4.25
2019-02-19T11:29:52.575Z,4.33
2019-02-19T11:32:57.761Z,4.44
2019-02-19T11:36:02.981Z,4.55
2019-02-19T11:39:12.014Z,4.58
2019-02-19T11:42:17.180Z,4.65
2019-02-19T11:45:22.340Z,4.84
2019-02-19T11:48:27.514Z,5.02
2019-02-19T11:51:32.677Z,5.69
2019-02-19T11:54:37.896Z,6.47
2019-02-19T11:57:43.042Z,6.17
2019-02-19T12:00:48.201Z,6.01
2019-02-19T12:03:54.592Z,5.59
2019-02-19T12:06:59.738Z,5.78
2019-02-19T12:10:05.005Z,5.74
2019-02-19T12:13:10.206Z,5.82
2019-02-19T12:16:15.451Z,6.26
2019-02-19T12:19:20.589Z,6.67
2019-02-19T12:22:25.765Z,6.59
2019-02-19T12:25:30.896Z,6.49
2019-02-19T12:28:36.141Z,6.67
2019-02-19T12:31:41.316Z,7.14
2019-02-19T12:34:48.443Z,7.10
2019-02-19T12:37:55.263Z,6.99
2019-02-19T12:41:00.449Z,6.99
2019-02-19T12:44:05.600Z,7.07
2019-02-19T12:47:10.717Z,7.56
2019-02-19T12:50:15.928Z,7.48
2019-02-19T12:53:21.101Z,7.28
2019-02-19T12:56:26.225Z,7.43
2019-02-19T12:59:31.721Z,7.90
2019-02-19T13:02:36.812Z,8.08
2019-02-19T13:05:42.089Z,8.45
2019-02-19T13:08:47.139Z,9.11
2019-02-19T13:11:52.353Z,9.90
2019-02-19T13:14:57.572Z,9.74
2019-02-19T13:18:02.774Z,9.33
2019-02-19T13:21:07.898Z,10.20
2019-02-19T13:24:13.111Z,10.75
2019-02-19T13:27:18.221Z,10.70
2019-02-19T13:30:23.376Z,10.75
2019-02-19T13:33:28.547Z,9.96
2019-02-19T13:36:33.660Z,10.25
2019-02-19T13:39:38.809Z,10.49
2019-02-19T13:42:43.924Z,10.34
2019-02-19T13:45:49.183Z,10.83
2019-02-19T13:48:54.353Z,10.46
2019-02-19T13:52:05.472Z,10.39
2019-02-19T13:55:17.597Z,10.45
2019-02-19T13:58:22.747Z,10.50
2019-02-19T14:01:27.934Z,10.61
2019-02-19T14:04:33.093Z,10.92
2019-02-19T14:07:38.211Z,10.29
2019-02-19T14:10:43.403Z,10.63
2019-02-19T14:14:10.300Z,10.32
2019-02-19T14:17:17.785Z,10.28
2019-02-19T14:20:41.886Z,10.03
2019-02-19T14:24:04.847Z,10.18
2019-02-19T14:27:34.839Z,10.28
2019-02-19T14:31:14.482Z,10.42
2019-02-19T14:34:47.131Z,10.66
2019-02-19T14:38:09.990Z,10.31
2019-02-19T14:41:34.701Z,10.50
2019-02-19T14:44:58.859Z,10.46
2019-02-19T14:48:23.102Z,10.39
2019-02-19T14:51:45.396Z,10.06
2019-02-19T14:55:01.808Z,9.92
2019-02-19T14:58:24.505Z,9.81
2019-02-19T15:01:47.506Z,9.95
2019-02-19T15:05:06.875Z,9.85
2019-02-19T15:08:34.052Z,9.89
2019-02-19T15:11:58.210Z,9.88
2019-02-19T15:15:22.279Z,9.63
2019-02-19T15:18:48.367Z,9.49
2019-02-19T15:22:15.525Z,9.34
2019-02-19T15:25:42.445Z,9.31
2019-02-19T15:29:01.715Z,9.25
2019-02-19T15:32:25.862Z,8.91
2019-02-19T15:35:41.969Z,8.55
2019-02-19T15:39:24.327Z,8.66
2019-02-19T15:42:47.045Z,8.41
2019-02-19T15:46:11.211Z,8.49
2019-02-19T15:49:47.584Z,8.18
2019-02-19T15:53:07.194Z,7.82
2019-02-19T15:56:24.726Z,7.47
2019-02-19T15:59:46.600Z,7.56
2019-02-19T16:03:11.733Z,7.52
2019-02-19T16:06:23.497Z,7.43
2019-02-19T16:09:53.397Z,7.23
2019-02-19T16:13:26.795Z,6.92
2019-02-19T16:17:00.820Z,6.91
2019-02-19T16:20:32.330Z,6.71
2019-02-19T16:24:01.014Z,6.58
2019-02-19T16:27:26.393Z,6.32
2019-02-19T16:31:05.922Z,6.26
2019-02-19T16:34:19.994Z,6.09
2019-02-19T16:37:47.842Z,5.82
2019-02-19T16:41:09.501Z,5.63
2019-02-19T16:44:46.012Z,5.31
2019-02-19T16:48:09.086Z,5.35
2019-02-19T16:51:45.443Z,5.31
2019-02-19T16:55:27.843Z,5.02
2019-02-19T16:58:50.624Z,5.01
2019-02-19T17:02:10.577Z,4.61
2019-02-19T17:05:28.296Z,4.45
2019-02-19T17:08:50.547Z,4.40
2019-02-19T17:12:09.047Z,4.42
2019-02-19T17:15:32.294Z,4.32
2019-02-19T17:18:53.379Z,4.11
2019-02-19T17:22:23.520Z,4.03
2019-02-19T17:25:40.101Z,4.02
2019-02-19T17:29:01.035Z,3.94
2019-02-19T17:32:34.206Z,3.84
2019-02-19T17:35:49.995Z,3.59
2019-02-19T17:39:03.951Z,3.55
2019-02-19T17:42:29.117Z,3.46
2019-02-19T17:45:52.198Z,3.58
2019-02-19T17:49:19.497Z,3.43
2019-02-19T17:52:36.646Z,3.34
2019-02-19T17:55:58.416Z,3.17
2019-02-19T17:59:15.077Z,3.13
2019-02-19T18:02:30.016Z,3.06
2019-02-19T18:06:05.982Z,2.90
2019-02-19T18:09:18.628Z,2.94
2019-02-19T18:12:38.290Z,2.65
2019-02-19T18:16:01.486Z,2.53
2019-02-19T18:19:06.736Z,2.67
2019-02-19T18:22:12.071Z,2.70
2019-02-19T18:25:17.307Z,2.90
2019-02-19T18:28:22.464Z,3.05
2019-02-19T18:31:27.683Z,3.04
2019-02-19T18:34:32.984Z,3.13
2019-02-19T18:37:38.209Z,3.09
2019-02-19T18:40:43.320Z,2.90
2019-02-19T18:43:48.584Z,2.78
2019-02-19T18:46:53.813Z,2.59
2019-02-19T18:49:59.051Z,2.35
2019-02-19T18:53:04.194Z,2.29
2019-02-19T18:56:09.423Z,2.02
2019-02-19T18:59:14.622Z,1.86
2019-02-19T19:02:19.809Z,1.70
2019-02-19T19:05:25.025Z,1.67
2019-02-19T19:08:30.716Z,1.63
2019-02-19T19:11:35.910Z,1.66
2019-02-19T19:14:41.079Z,1.59
2019-02-19T19:17:46.339Z,1.43
2019-02-19T19:20:51.610Z,1.32
2019-02-19T19:23:56.754Z,1.31
2019-02-19T19:27:01.927Z,1.16
2019-02-19T19:30:08.219Z,1.03
2019-02-19T19:33:13.462Z,0.90
2019-02-19T19:36:18.609Z,0.87
2019-02-19T19:39:23.786Z,0.87
2019-02-19T19:42:28.935Z,1.00
2019-02-19T19:45:34.213Z,1.04
2019-02-19T19:48:39.401Z,0.84
2019-02-19T19:51:44.636Z,0.75
2019-02-19T19:54:49.890Z,0.77
2019-02-19T19:57:55.056Z,0.82
2019-02-19T20:01:00.804Z,0.82
2019-02-19T20:04:06.726Z,0.56
2019-02-19T20:07:11.937Z,0.42
2019-02-19T20:10:17.152Z,0.42
2019-02-19T20:13:22.330Z,0.43
2019-02-19T20:16:27.526Z,0.48
2019-02-19T20:19:32.709Z,0.50
2019-02-19T20:22:37.847Z,0.30
2019-02-19T20:25:43.114Z,0.26
2019-02-19T20:28:48.430Z,0.40
2019-02-19T20:31:53.724Z,0.29
2019-02-19T20:34:58.936Z,0.34
2019-02-19T20:38:04.210Z,0.30
2019-02-19T20:41:09.561Z,0.13
2019-02-19T20:44:14.815Z,0.01
2019-02-19T20:47:20.042Z,0.01
2019-02-19T20:50:25.211Z,-0.10
2019-02-19T20:53:30.429Z,-0.12
2019-02-19T20:56:35.671Z,-0.11
2019-02-19T20:59:40.958Z,-0.04
2019-02-19T21:02:46.247Z,0.12
2019-02-19T21:05:51.546Z,-0.05
2019-02-19T21:08:56.995Z,0.26
2019-02-19T21:12:02.245Z,0.07
2019-02-19T21:15:07.606Z,-0.03
2019-02-19T21:18:13.697Z,-0.03
2019-02-19T21:21:19.100Z,0.17
2019-02-19T21:24:24.470Z,0.08
2019-02-19T21:27:29.889Z,0.04
2019-02-19T21:30:35.342Z,-0.03
2019-02-19T21:33:40.566Z,-0.11
2019-02-19T21:36:45.818Z,-0.18
2019-02-19T21:39:51.100Z,-0.33
2019-02-19T21:42:56.339Z,-0.50
2019-02-19T21:46:02.793Z,-0.63
2019-02-19T21:49:08.097Z,-0.64
2019-02-19T21:52:13.375Z,-0.65
2019-02-19T21:55:18.753Z,-0.69
2019-02-19T21:58:24.071Z,-0.69
2019-02-19T22:01:29.566Z,-0.71
2019-02-19T22:04:34.894Z,-0.61
2019-02-19T22:07:40.227Z,-0.64
2019-02-19T22:10:45.903Z,-0.73
2019-02-19T22:13:51.296Z,-0.73
2019-02-19T22:16:56.549Z,-0.72
2019-02-19T22:20:03.692Z,-0.71
2019-02-19T22:23:10.737Z,-0.88
2019-02-19T22:26:17.113Z,-0.89
2019-02-19T22:29:22.486Z,-0.77
2019-02-19T22:32:27.705Z,-0.91
2019-02-19T22:35:32.955Z,-0.88
2019-02-19T22:38:38.342Z,-1.03
2019-02-19T22:41:43.504Z,-0.98
2019-02-19T22:44:51.466Z,-0.86
2019-02-19T22:47:56.664Z,-0.90
2019-02-19T22:51:01.845Z,-0.92
2019-02-19T22:54:11.116Z,-0.85
2019-02-19T22:57:17.216Z,-0.88
2019-02-19T23:00:45.815Z,-0.88
2019-02-19T23:03:52.667Z,-1.06
2019-02-19T23:06:57.825Z,-1.15
2019-02-19T23:10:03.069Z,-1.28
2019-02-19T23:13:08.562Z,-1.36
2019-02-19T23:16:13.867Z,-1.42
2019-02-19T23:19:19.068Z,-1.43
2019-02-19T23:22:24.243Z,-1.35
2019-02-19T23:25:29.433Z,-1.39
2019-02-19T23:28:34.670Z,-1.36
2019-02-19T23:31:41.054Z,-1.31
2019-02-19T23:34:47.857Z,-1.28
2019-02-19T23:37:53.077Z,-1.10
2019-02-19T23:40:59.307Z,-1.04
2019-02-19T23:44:04.498Z,-1.06
2019-02-19T23:47:09.703Z,-1.11
2019-02-19T23:50:14.840Z,-1.22
2019-02-19T23:53:20.204Z,-1.24
2019-02-19T23:56:25.297Z,-1.31
2019-02-19T23:59:30.607Z,-1.26
